Arkansaw, Wisconsin
Current Conditions -  °F | °C
As of 5:15 AM on Saturday 25 Oct 2014 (Local Time) from KLUM Reporting Station
Clear Clear  
Wind Chill: 11°   Ceiling: Unl
Heat Index: 11°   Visibility: 10mi
Dew Point:   Wind: 8mph
Humidity: 61%   Direction: 270°W
Pressure: 29.93"   Gusts: NA
Location:  44.63°N, 92.03°W
Report Text: KLUM 251015Z AUTO 27007KT 10SM CLR 11/04 A2993 RMK AO2 T01080035
Loading
Personal Weather Stations






























Interactive Weather Map
Tropical Storm Tracking
New forecast layout! Learn more

10-Day Weather Forecast

Advertisements
Track Severe Weather on mobile